sensor_id;sensor_type;location;lat;lon;timestamp;pressure;altitude;pressure_sealevel;temperature;humidity
77572;BME280;67214;47.454;18.966;2023-02-01T00:00:35;100286.15;;;2.36;78.14
77572;BME280;67214;47.454;18.966;2023-02-01T00:03:02;100284.34;;;2.46;77.82
77572;BME280;67214;47.454;18.966;2023-02-01T00:05:31;100275.34;;;2.33;77.96
77572;BME280;67214;47.454;18.966;2023-02-01T00:07:59;100275.94;;;2.40;77.74
77572;BME280;67214;47.454;18.966;2023-02-01T00:10:26;100265.88;;;2.49;77.25
77572;BME280;67214;47.454;18.966;2023-02-01T00:12:54;100273.56;;;2.44;77.61
77572;BME280;67214;47.454;18.966;2023-02-01T00:15:21;100270.73;;;2.67;76.18
77572;BME280;67214;47.454;18.966;2023-02-01T00:17:54;100260.28;;;2.48;76.64
77572;BME280;67214;47.454;18.966;2023-02-01T00:20:21;100254.84;;;2.61;75.95
77572;BME280;67214;47.454;18.966;2023-02-01T00:22:49;100254.59;;;2.57;76.01
77572;BME280;67214;47.454;18.966;2023-02-01T00:25:16;100261.72;;;2.64;75.26
77572;BME280;67214;47.454;18.966;2023-02-01T00:27:47;100255.08;;;2.65;75.25
77572;BME280;67214;47.454;18.966;2023-02-01T00:30:13;100253.02;;;2.63;75.47
77572;BME280;67214;47.454;18.966;2023-02-01T00:32:41;100260.22;;;2.58;75.64
77572;BME280;67214;47.454;18.966;2023-02-01T00:35:09;100256.03;;;2.64;75.69
77572;BME280;67214;47.454;18.966;2023-02-01T00:37:36;100252.47;;;2.65;75.66
77572;BME280;67214;47.454;18.966;2023-02-01T00:40:04;100252.71;;;2.69;75.28
77572;BME280;67214;47.454;18.966;2023-02-01T00:42:31;100266.11;;;2.63;75.42
77572;BME280;67214;47.454;18.966;2023-02-01T00:44:59;100259.59;;;2.72;75.10
77572;BME280;67214;47.454;18.966;2023-02-01T00:47:26;100264.68;;;2.75;75.10
77572;BME280;67214;47.454;18.966;2023-02-01T00:49:54;100273.90;;;2.65;76.08
77572;BME280;67214;47.454;18.966;2023-02-01T00:52:21;100263.19;;;2.61;75.82
77572;BME280;67214;47.454;18.966;2023-02-01T00:54:48;100265.16;;;2.56;76.56
77572;BME280;67214;47.454;18.966;2023-02-01T00:57:16;100261.49;;;2.50;77.33
77572;BME280;67214;47.454;18.966;2023-02-01T00:59:44;100253.23;;;2.59;77.28
77572;BME280;67214;47.454;18.966;2023-02-01T01:02:11;100251.61;;;2.56;77.14
77572;BME280;67214;47.454;18.966;2023-02-01T01:04:40;100249.05;;;2.55;77.23
77572;BME280;67214;47.454;18.966;2023-02-01T01:07:08;100248.01;;;2.49;77.29
77572;BME280;67214;47.454;18.966;2023-02-01T01:09:35;100240.87;;;2.33;78.35
77572;BME280;67214;47.454;18.966;2023-02-01T01:12:03;100231.00;;;2.30;78.63
77572;BME280;67214;47.454;18.966;2023-02-01T01:14:31;100238.75;;;2.23;79.13
77572;BME280;67214;47.454;18.966;2023-02-01T01:16:59;100237.19;;;2.19;78.93
77572;BME280;67214;47.454;18.966;2023-02-01T01:19:27;100223.01;;;2.14;79.47
77572;BME280;67214;47.454;18.966;2023-02-01T01:21:54;100206.55;;;2.02;79.40
77572;BME280;67214;47.454;18.966;2023-02-01T01:24:21;100193.32;;;1.86;79.64
77572;BME280;67214;47.454;18.966;2023-02-01T01:26:49;100207.11;;;1.80;79.89
77572;BME280;67214;47.454;18.966;2023-02-01T01:29:16;100207.25;;;1.77;79.42
77572;BME280;67214;47.454;18.966;2023-02-01T01:31:44;100212.22;;;1.73;79.47
77572;BME280;67214;47.454;18.966;2023-02-01T01:34:11;100191.70;;;2.31;76.12
77572;BME280;67214;47.454;18.966;2023-02-01T01:36:39;100186.09;;;2.20;76.30
77572;BME280;67214;47.454;18.966;2023-02-01T01:39:06;100166.27;;;2.06;76.45
77572;BME280;67214;47.454;18.966;2023-02-01T01:41:33;100191.87;;;1.90;77.27
77572;BME280;67214;47.454;18.966;2023-02-01T01:44:03;100184.77;;;1.73;77.85
77572;BME280;67214;47.454;18.966;2023-02-01T01:46:37;100173.91;;;1.82;77.61
77572;BME280;67214;47.454;18.966;2023-02-01T01:49:16;100189.88;;;1.66;77.95
77572;BME280;67214;47.454;18.966;2023-02-01T01:51:52;100191.20;;;1.46;78.52
77572;BME280;67214;47.454;18.966;2023-02-01T01:54:21;100200.73;;;1.36;79.19
77572;BME280;67214;47.454;18.966;2023-02-01T01:56:51;100203.29;;;1.38;78.28
77572;BME280;67214;47.454;18.966;2023-02-01T01:59:21;100191.24;;;1.64;77.44
77572;BME280;67214;47.454;18.966;2023-02-01T02:01:51;100190.73;;;1.56;78.04
77572;BME280;67214;47.454;18.966;2023-02-01T02:04:19;100208.50;;;1.48;78.53
77572;BME280;67214;47.454;18.966;2023-02-01T02:06:56;100191.11;;;1.47;78.35
77572;BME280;67214;47.454;18.966;2023-02-01T02:09:24;100183.06;;;1.72;76.91
77572;BME280;67214;47.454;18.966;2023-02-01T02:11:51;100188.72;;;2.39;73.81
77572;BME280;67214;47.454;18.966;2023-02-01T02:14:20;100186.80;;;2.43;73.59
77572;BME280;67214;47.454;18.966;2023-02-01T02:17:24;100176.70;;;2.62;72.48
77572;BME280;67214;47.454;18.966;2023-02-01T02:20:20;100180.50;;;2.74;71.95
77572;BME280;67214;47.454;18.966;2023-02-01T02:22:59;100182.05;;;2.78;71.61
77572;BME280;67214;47.454;18.966;2023-02-01T02:28:05;100173.12;;;2.82;71.18
77572;BME280;67214;47.454;18.966;2023-02-01T02:30:42;100173.05;;;2.84;71.14
77572;BME280;67214;47.454;18.966;2023-02-01T02:33:25;100165.58;;;2.76;71.46
77572;BME280;67214;47.454;18.966;2023-02-01T02:36:13;100159.66;;;2.81;71.27
77572;BME280;67214;47.454;18.966;2023-02-01T02:38:54;100156.03;;;2.84;71.23
77572;BME280;67214;47.454;18.966;2023-02-01T02:44:26;100158.81;;;2.80;71.24
77572;BME280;67214;47.454;18.966;2023-02-01T02:47:16;100162.70;;;2.63;71.70
77572;BME280;67214;47.454;18.966;2023-02-01T02:50:02;100163.35;;;2.77;71.27
77572;BME280;67214;47.454;18.966;2023-02-01T02:52:47;100167.80;;;2.75;71.39
77572;BME280;67214;47.454;18.966;2023-02-01T02:55:34;100160.45;;;2.56;72.08
77572;BME280;67214;47.454;18.966;2023-02-01T02:58:04;100157.46;;;2.63;71.82
77572;BME280;67214;47.454;18.966;2023-02-01T03:00:52;100152.50;;;2.57;72.00
77572;BME280;67214;47.454;18.966;2023-02-01T03:03:39;100152.01;;;2.68;71.80
77572;BME280;67214;47.454;18.966;2023-02-01T03:06:25;100153.93;;;2.64;72.04
77572;BME280;67214;47.454;18.966;2023-02-01T03:08:55;100145.90;;;2.59;72.25
77572;BME280;67214;47.454;18.966;2023-02-01T03:11:24;100160.45;;;2.56;72.44
77572;BME280;67214;47.454;18.966;2023-02-01T03:13:56;100148.67;;;2.56;72.64
77572;BME280;67214;47.454;18.966;2023-02-01T03:16:28;100142.94;;;2.84;71.61
77572;BME280;67214;47.454;18.966;2023-02-01T03:19:02;100154.33;;;2.83;71.67
77572;BME280;67214;47.454;18.966;2023-02-01T03:21:45;100140.19;;;3.12;70.80
77572;BME280;67214;47.454;18.966;2023-02-01T03:24:23;100158.22;;;3.01;71.07
77572;BME280;67214;47.454;18.966;2023-02-01T03:26:55;100152.34;;;3.31;69.81
77572;BME280;67214;47.454;18.966;2023-02-01T03:29:44;100154.96;;;3.31;69.87
77572;BME280;67214;47.454;18.966;2023-02-01T03:32:06;100150.20;;;3.21;70.16
77572;BME280;67214;47.454;18.966;2023-02-01T03:34:36;100158.43;;;3.31;69.88
77572;BME280;67214;47.454;18.966;2023-02-01T03:37:13;100158.59;;;3.19;70.13
77572;BME280;67214;47.454;18.966;2023-02-01T03:39:44;100149.59;;;3.34;69.67
77572;BME280;67214;47.454;18.966;2023-02-01T03:42:10;100147.19;;;3.38;69.53
77572;BME280;67214;47.454;18.966;2023-02-01T03:44:46;100128.45;;;3.45;69.17
77572;BME280;67214;47.454;18.966;2023-02-01T03:47:14;100135.91;;;3.53;68.90
77572;BME280;67214;47.454;18.966;2023-02-01T03:49:44;100121.86;;;3.62;68.46
77572;BME280;67214;47.454;18.966;2023-02-01T03:52:14;100135.97;;;3.60;68.58
77572;BME280;67214;47.454;18.966;2023-02-01T03:54:43;100135.20;;;3.66;68.28
77572;BME280;67214;47.454;18.966;2023-02-01T03:57:14;100144.84;;;3.66;68.31
77572;BME280;67214;47.454;18.966;2023-02-01T03:59:44;100129.23;;;3.63;68.37
77572;BME280;67214;47.454;18.966;2023-02-01T04:02:12;100132.88;;;3.60;68.67
77572;BME280;67214;47.454;18.966;2023-02-01T04:04:39;100133.95;;;3.65;68.29
77572;BME280;67214;47.454;18.966;2023-02-01T04:07:07;100126.70;;;3.70;68.08
77572;BME280;67214;47.454;18.966;2023-02-01T04:09:34;100124.13;;;3.77;67.76
77572;BME280;67214;47.454;18.966;2023-02-01T04:12:01;100119.82;;;3.67;68.29
77572;BME280;67214;47.454;18.966;2023-02-01T04:14:29;100141.30;;;3.58;68.54
77572;BME280;67214;47.454;18.966;2023-02-01T04:16:56;100128.20;;;3.58;68.53
77572;BME280;67214;47.454;18.966;2023-02-01T04:19:24;100120.06;;;3.63;68.44
77572;BME280;67214;47.454;18.966;2023-02-01T04:21:51;100142.62;;;3.58;68.48
77572;BME280;67214;47.454;18.966;2023-02-01T04:24:18;100142.84;;;3.62;68.36
77572;BME280;67214;47.454;18.966;2023-02-01T04:26:46;100132.64;;;3.65;68.14
77572;BME280;67214;47.454;18.966;2023-02-01T04:29:13;100152.60;;;3.67;68.11
77572;BME280;67214;47.454;18.966;2023-02-01T04:31:41;100145.83;;;3.55;68.66
77572;BME280;67214;47.454;18.966;2023-02-01T04:34:08;100146.00;;;3.52;68.63
77572;BME280;67214;47.454;18.966;2023-02-01T04:36:36;100154.48;;;3.57;68.40
77572;BME280;67214;47.454;18.966;2023-02-01T04:39:03;100154.95;;;3.56;68.14
77572;BME280;67214;47.454;18.966;2023-02-01T04:41:31;100147.37;;;3.59;68.08
77572;BME280;67214;47.454;18.966;2023-02-01T04:43:58;100150.27;;;3.46;68.76
77572;BME280;67214;47.454;18.966;2023-02-01T04:46:26;100151.94;;;3.47;68.61
77572;BME280;67214;47.454;18.966;2023-02-01T04:48:53;100161.04;;;3.57;68.15
77572;BME280;67214;47.454;18.966;2023-02-01T04:51:21;100143.70;;;3.54;68.22
77572;BME280;67214;47.454;18.966;2023-02-01T04:53:48;100148.00;;;3.47;68.33
77572;BME280;67214;47.454;18.966;2023-02-01T04:56:15;100152.34;;;3.39;68.78
77572;BME280;67214;47.454;18.966;2023-02-01T04:58:43;100155.87;;;3.47;68.35
77572;BME280;67214;47.454;18.966;2023-02-01T05:01:10;100141.45;;;3.47;68.43
77572;BME280;67214;47.454;18.966;2023-02-01T05:03:38;100149.99;;;3.59;67.80
77572;BME280;67214;47.454;18.966;2023-02-01T05:06:05;100158.57;;;3.62;67.72
77572;BME280;67214;47.454;18.966;2023-02-01T05:08:33;100157.95;;;3.57;68.07
77572;BME280;67214;47.454;18.966;2023-02-01T05:11:01;100180.53;;;3.60;67.93
77572;BME280;67214;47.454;18.966;2023-02-01T05:13:31;100170.91;;;3.60;67.77
77572;BME280;67214;47.454;18.966;2023-02-01T05:16:15;100157.72;;;3.62;67.74
77572;BME280;67214;47.454;18.966;2023-02-01T05:18:43;100165.88;;;3.64;67.43
77572;BME280;67214;47.454;18.966;2023-02-01T05:21:10;100162.63;;;3.68;67.31
77572;BME280;67214;47.454;18.966;2023-02-01T05:23:37;100165.70;;;3.76;67.22
77572;BME280;67214;47.454;18.966;2023-02-01T05:26:07;100155.26;;;3.83;67.03
77572;BME280;67214;47.454;18.966;2023-02-01T05:28:34;100149.66;;;3.82;67.29
77572;BME280;67214;47.454;18.966;2023-02-01T05:31:01;100145.64;;;3.75;67.42
77572;BME280;67214;47.454;18.966;2023-02-01T05:33:30;100146.66;;;3.72;67.47
77572;BME280;67214;47.454;18.966;2023-02-01T05:35:58;100137.31;;;3.75;67.43
77572;BME280;67214;47.454;18.966;2023-02-01T05:38:25;100133.56;;;3.64;68.09
77572;BME280;67214;47.454;18.966;2023-02-01T05:40:52;100136.64;;;3.63;67.93
77572;BME280;67214;47.454;18.966;2023-02-01T05:43:20;100133.34;;;3.60;68.15
77572;BME280;67214;47.454;18.966;2023-02-01T05:45:47;100142.13;;;3.59;68.13
77572;BME280;67214;47.454;18.966;2023-02-01T05:48:15;100150.77;;;3.61;68.13
77572;BME280;67214;47.454;18.966;2023-02-01T05:50:43;100163.81;;;3.62;68.09
77572;BME280;67214;47.454;18.966;2023-02-01T05:53:11;100160.19;;;3.56;68.36
77572;BME280;67214;47.454;18.966;2023-02-01T05:55:39;100153.33;;;3.62;67.95
77572;BME280;67214;47.454;18.966;2023-02-01T05:58:06;100156.77;;;3.63;67.90
77572;BME280;67214;47.454;18.966;2023-02-01T06:00:34;100154.70;;;3.69;67.65
77572;BME280;67214;47.454;18.966;2023-02-01T06:03:01;100156.69;;;3.73;67.59
77572;BME280;67214;47.454;18.966;2023-02-01T06:05:29;100168.50;;;3.64;67.85
77572;BME280;67214;47.454;18.966;2023-02-01T06:07:56;100172.19;;;3.78;67.53
77572;BME280;67214;47.454;18.966;2023-02-01T06:10:24;100163.25;;;3.73;67.38
77572;BME280;67214;47.454;18.966;2023-02-01T06:12:52;100173.98;;;3.60;68.08
77572;BME280;67214;47.454;18.966;2023-02-01T06:15:19;100172.21;;;3.60;68.06
77572;BME280;67214;47.454;18.966;2023-02-01T06:17:46;100162.51;;;3.62;67.93
77572;BME280;67214;47.454;18.966;2023-02-01T06:20:15;100171.42;;;3.67;67.95
77572;BME280;67214;47.454;18.966;2023-02-01T06:22:43;100166.03;;;3.70;67.79
77572;BME280;67214;47.454;18.966;2023-02-01T06:25:11;100194.16;;;3.75;67.56
77572;BME280;67214;47.454;18.966;2023-02-01T06:27:38;100192.95;;;3.73;67.53
77572;BME280;67214;47.454;18.966;2023-02-01T06:30:07;100191.70;;;3.72;67.53
77572;BME280;67214;47.454;18.966;2023-02-01T06:32:35;100195.22;;;3.88;67.02
77572;BME280;67214;47.454;18.966;2023-02-01T06:35:02;100198.70;;;3.89;67.09
77572;BME280;67214;47.454;18.966;2023-02-01T06:37:29;100189.52;;;3.89;66.97
77572;BME280;67214;47.454;18.966;2023-02-01T06:39:57;100191.90;;;3.93;66.60
77572;BME280;67214;47.454;18.966;2023-02-01T06:42:25;100192.81;;;3.92;66.99
77572;BME280;67214;47.454;18.966;2023-02-01T06:44:52;100203.02;;;3.90;66.78
77572;BME280;67214;47.454;18.966;2023-02-01T06:47:19;100195.77;;;3.95;66.65
77572;BME280;67214;47.454;18.966;2023-02-01T06:49:47;100206.16;;;3.96;66.61
77572;BME280;67214;47.454;18.966;2023-02-01T06:52:14;100202.16;;;3.98;66.74
77572;BME280;67214;47.454;18.966;2023-02-01T06:54:42;100205.23;;;3.97;66.54
77572;BME280;67214;47.454;18.966;2023-02-01T06:57:09;100222.91;;;4.02;66.58
77572;BME280;67214;47.454;18.966;2023-02-01T06:59:37;100194.94;;;4.10;66.40
77572;BME280;67214;47.454;18.966;2023-02-01T07:02:05;100202.64;;;4.13;66.13
77572;BME280;67214;47.454;18.966;2023-02-01T07:04:32;100212.84;;;4.10;66.31
77572;BME280;67214;47.454;18.966;2023-02-01T07:07:00;100200.94;;;4.12;66.18
77572;BME280;67214;47.454;18.966;2023-02-01T07:09:27;100215.52;;;4.17;65.87
77572;BME280;67214;47.454;18.966;2023-02-01T07:11:54;100211.59;;;4.17;65.83
77572;BME280;67214;47.454;18.966;2023-02-01T07:14:22;100207.23;;;4.25;65.65
77572;BME280;67214;47.454;18.966;2023-02-01T07:16:49;100222.12;;;4.25;65.86
77572;BME280;67214;47.454;18.966;2023-02-01T07:19:17;100227.24;;;4.28;65.84
77572;BME280;67214;47.454;18.966;2023-02-01T07:21:44;100224.05;;;4.30;66.11
77572;BME280;67214;47.454;18.966;2023-02-01T07:24:12;100238.08;;;4.37;65.32
77572;BME280;67214;47.454;18.966;2023-02-01T07:26:43;100236.06;;;4.42;65.08
77572;BME280;67214;47.454;18.966;2023-02-01T07:29:11;100244.66;;;4.53;64.91
77572;BME280;67214;47.454;18.966;2023-02-01T07:31:38;100251.19;;;4.61;64.83
77572;BME280;67214;47.454;18.966;2023-02-01T07:34:06;100257.11;;;4.65;64.62
77572;BME280;67214;47.454;18.966;2023-02-01T07:36:33;100246.47;;;4.68;64.56
77572;BME280;67214;47.454;18.966;2023-02-01T07:39:04;100243.31;;;4.77;64.31
77572;BME280;67214;47.454;18.966;2023-02-01T07:41:31;100249.94;;;4.84;64.29
77572;BME280;67214;47.454;18.966;2023-02-01T07:43:59;100257.72;;;4.86;63.76
77572;BME280;67214;47.454;18.966;2023-02-01T07:46:27;100264.29;;;4.86;63.96
77572;BME280;67214;47.454;18.966;2023-02-01T07:48:55;100253.91;;;4.91;63.47
77572;BME280;67214;47.454;18.966;2023-02-01T07:51:23;100247.88;;;4.89;63.54
77572;BME280;67214;47.454;18.966;2023-02-01T07:53:50;100250.83;;;4.92;63.69
77572;BME280;67214;47.454;18.966;2023-02-01T07:56:19;100249.15;;;4.98;63.30
77572;BME280;67214;47.454;18.966;2023-02-01T07:58:50;100249.21;;;5.05;63.37
77572;BME280;67214;47.454;18.966;2023-02-01T08:01:20;100259.16;;;5.07;63.31
77572;BME280;67214;47.454;18.966;2023-02-01T08:03:50;100255.03;;;5.10;63.41
77572;BME280;67214;47.454;18.966;2023-02-01T08:06:19;100244.05;;;5.10;63.40
77572;BME280;67214;47.454;18.966;2023-02-01T08:08:48;100242.05;;;5.23;63.30
77572;BME280;67214;47.454;18.966;2023-02-01T08:11:16;100246.09;;;5.21;63.35
77572;BME280;67214;47.454;18.966;2023-02-01T08:13:44;100248.77;;;5.12;62.82
77572;BME280;67214;47.454;18.966;2023-02-01T08:16:13;100246.14;;;5.12;62.62
77572;BME280;67214;47.454;18.966;2023-02-01T08:18:42;100242.44;;;5.01;63.03
77572;BME280;67214;47.454;18.966;2023-02-01T08:21:12;100253.16;;;5.05;63.35
77572;BME280;67214;47.454;18.966;2023-02-01T08:23:40;100258.81;;;4.97;63.50
77572;BME280;67214;47.454;18.966;2023-02-01T08:26:10;100270.14;;;4.91;63.98
77572;BME280;67214;47.454;18.966;2023-02-01T08:28:40;100283.14;;;4.85;64.28
77572;BME280;67214;47.454;18.966;2023-02-01T08:31:10;100277.31;;;4.80;64.18
77572;BME280;67214;47.454;18.966;2023-02-01T08:33:40;100288.19;;;4.81;64.59
77572;BME280;67214;47.454;18.966;2023-02-01T08:36:09;100291.98;;;4.84;64.44
77572;BME280;67214;47.454;18.966;2023-02-01T08:38:39;100289.88;;;4.98;64.34
77572;BME280;67214;47.454;18.966;2023-02-01T08:41:12;100295.63;;;5.13;64.19
77572;BME280;67214;47.454;18.966;2023-02-01T08:43:40;100280.76;;;5.28;63.63
77572;BME280;67214;47.454;18.966;2023-02-01T08:46:09;100296.48;;;5.36;62.98
77572;BME280;67214;47.454;18.966;2023-02-01T08:48:37;100287.95;;;5.40;62.79
77572;BME280;67214;47.454;18.966;2023-02-01T08:51:07;100281.05;;;5.53;62.10
77572;BME280;67214;47.454;18.966;2023-02-01T08:53:35;100279.75;;;5.60;61.72
77572;BME280;67214;47.454;18.966;2023-02-01T08:56:04;100270.28;;;5.65;61.82
77572;BME280;67214;47.454;18.966;2023-02-01T08:58:32;100291.80;;;5.71;61.74
77572;BME280;67214;47.454;18.966;2023-02-01T09:01:07;100277.26;;;5.73;61.61
77572;BME280;67214;47.454;18.966;2023-02-01T09:03:35;100269.70;;;5.67;62.00
77572;BME280;67214;47.454;18.966;2023-02-01T09:06:03;100265.89;;;5.79;61.62
77572;BME280;67214;47.454;18.966;2023-02-01T09:08:32;100276.53;;;5.85;61.23
77572;BME280;67214;47.454;18.966;2023-02-01T09:11:01;100281.33;;;5.85;61.32
77572;BME280;67214;47.454;18.966;2023-02-01T09:13:29;100273.97;;;5.76;61.31
77572;BME280;67214;47.454;18.966;2023-02-01T09:15:57;100276.99;;;5.77;61.44
77572;BME280;67214;47.454;18.966;2023-02-01T09:18:26;100266.51;;;5.91;61.29
77572;BME280;67214;47.454;18.966;2023-02-01T09:20:53;100269.67;;;5.82;61.20
77572;BME280;67214;47.454;18.966;2023-02-01T09:23:21;100282.14;;;5.94;61.27
77572;BME280;67214;47.454;18.966;2023-02-01T09:25:48;100271.08;;;6.11;60.90
77572;BME280;67214;47.454;18.966;2023-02-01T09:28:18;100259.59;;;6.26;60.50
77572;BME280;67214;47.454;18.966;2023-02-01T09:30:46;100260.72;;;6.29;60.22
77572;BME280;67214;47.454;18.966;2023-02-01T09:33:13;100259.32;;;6.30;60.67
77572;BME280;67214;47.454;18.966;2023-02-01T09:35:41;100266.29;;;6.31;60.35
77572;BME280;67214;47.454;18.966;2023-02-01T09:38:08;100289.22;;;6.36;60.51
77572;BME280;67214;47.454;18.966;2023-02-01T09:40:36;100290.44;;;6.24;60.65
77572;BME280;67214;47.454;18.966;2023-02-01T09:43:16;100295.25;;;6.38;60.26
77572;BME280;67214;47.454;18.966;2023-02-01T09:48:19;100297.23;;;6.42;60.76
77572;BME280;67214;47.454;18.966;2023-02-01T09:50:51;100294.49;;;6.58;60.48
77572;BME280;67214;47.454;18.966;2023-02-01T09:53:29;100307.59;;;6.59;60.70
77572;BME280;67214;47.454;18.966;2023-02-01T09:56:21;100273.16;;;6.48;61.48
77572;BME280;67214;47.454;18.966;2023-02-01T10:01:00;100292.91;;;6.48;61.88
77572;BME280;67214;47.454;18.966;2023-02-01T10:03:34;100283.94;;;6.65;61.14
77572;BME280;67214;47.454;18.966;2023-02-01T10:25:36;100211.42;;;6.45;61.99
77572;BME280;67214;47.454;18.966;2023-02-01T10:28:02;100223.77;;;6.30;62.39
77572;BME280;67214;47.454;18.966;2023-02-01T10:30:37;100214.18;;;6.22;62.75
77572;BME280;67214;47.454;18.966;2023-02-01T10:33:14;100232.05;;;6.10;63.27
77572;BME280;67214;47.454;18.966;2023-02-01T10:35:36;100228.00;;;6.26;63.27
77572;BME280;67214;47.454;18.966;2023-02-01T10:38:07;100211.05;;;6.37;63.30
77572;BME280;67214;47.454;18.966;2023-02-01T10:40:36;100208.23;;;6.47;62.87
77572;BME280;67214;47.454;18.966;2023-02-01T10:43:04;100210.00;;;6.53;62.61
77572;BME280;67214;47.454;18.966;2023-02-01T10:45:33;100219.22;;;6.53;62.74
77572;BME280;67214;47.454;18.966;2023-02-01T10:48:02;100218.29;;;6.40;63.16
77572;BME280;67214;47.454;18.966;2023-02-01T10:56:21;100225.84;;;6.18;63.94
77572;BME280;67214;47.454;18.966;2023-02-01T10:58:47;100207.31;;;6.05;65.12
77572;BME280;67214;47.454;18.966;2023-02-01T11:01:17;100214.44;;;6.03;64.14
77572;BME280;67214;47.454;18.966;2023-02-01T11:03:53;100209.56;;;6.04;64.86
77572;BME280;67214;47.454;18.966;2023-02-01T11:06:39;100206.09;;;6.18;64.51
77572;BME280;67214;47.454;18.966;2023-02-01T11:16:51;100193.02;;;6.10;64.35
77572;BME280;67214;47.454;18.966;2023-02-01T11:19:18;100171.69;;;6.07;64.36
77572;BME280;67214;47.454;18.966;2023-02-01T11:21:55;100180.33;;;6.09;65.23
77572;BME280;67214;47.454;18.966;2023-02-01T11:26:57;100173.27;;;5.95;66.64
77572;BME280;67214;47.454;18.966;2023-02-01T11:29:29;100166.79;;;6.01;67.24
77572;BME280;67214;47.454;18.966;2023-02-01T11:31:58;100157.58;;;6.01;67.55
77572;BME280;67214;47.454;18.966;2023-02-01T11:34:38;100168.45;;;5.81;67.68
77572;BME280;67214;47.454;18.966;2023-02-01T11:37:03;100158.19;;;5.83;68.46
77572;BME280;67214;47.454;18.966;2023-02-01T11:39:37;100159.52;;;5.76;69.07
77572;BME280;67214;47.454;18.966;2023-02-01T11:42:15;100156.88;;;5.62;70.20
77572;BME280;67214;47.454;18.966;2023-02-01T11:44:45;100151.42;;;5.72;71.10
77572;BME280;67214;47.454;18.966;2023-02-01T11:47:28;100145.67;;;5.51;70.68
77572;BME280;67214;47.454;18.966;2023-02-01T11:50:01;100139.75;;;5.55;72.33
77572;BME280;67214;47.454;18.966;2023-02-01T11:52:55;100122.66;;;5.48;72.50
77572;BME280;67214;47.454;18.966;2023-02-01T11:55:29;100128.30;;;5.49;73.22
77572;BME280;67214;47.454;18.966;2023-02-01T12:00:45;100126.02;;;5.43;73.78
77572;BME280;67214;47.454;18.966;2023-02-01T12:06:07;100114.27;;;5.34;73.63
77572;BME280;67214;47.454;18.966;2023-02-01T12:11:29;100119.91;;;5.28;74.27
77572;BME280;67214;47.454;18.966;2023-02-01T12:17:08;100127.20;;;5.09;74.09
77572;BME280;67214;47.454;18.966;2023-02-01T12:25:00;100136.50;;;4.69;76.78
77572;BME280;67214;47.454;18.966;2023-02-01T12:30:36;100142.89;;;4.34;79.10
77572;BME280;67214;47.454;18.966;2023-02-01T12:33:09;100149.16;;;4.15;79.96
77572;BME280;67214;47.454;18.966;2023-02-01T12:35:43;100146.18;;;4.06;80.02
77572;BME280;67214;47.454;18.966;2023-02-01T12:43:38;100158.27;;;3.84;79.58
77572;BME280;67214;47.454;18.966;2023-02-01T12:46:10;100141.64;;;3.77;80.29
77572;BME280;67214;47.454;18.966;2023-02-01T12:48:38;100135.01;;;3.78;79.50
77572;BME280;67214;47.454;18.966;2023-02-01T12:51:23;100140.95;;;3.73;80.24
77572;BME280;67214;47.454;18.966;2023-02-01T12:56:25;100137.68;;;3.85;80.08
77572;BME280;67214;47.454;18.966;2023-02-01T12:58:55;100138.75;;;3.90;80.59
77572;BME280;67214;47.454;18.966;2023-02-01T13:04:17;100114.91;;;4.10;79.42
77572;BME280;67214;47.454;18.966;2023-02-01T13:06:44;100098.20;;;4.19;79.57
77572;BME280;67214;47.454;18.966;2023-02-01T13:09:31;100089.67;;;4.39;78.83
77572;BME280;67214;47.454;18.966;2023-02-01T13:12:11;100097.16;;;4.38;79.50
77572;BME280;67214;47.454;18.966;2023-02-01T13:17:41;100090.17;;;4.30;79.02
77572;BME280;67214;47.454;18.966;2023-02-01T13:20:00;100084.19;;;4.28;80.50
77572;BME280;67214;47.454;18.966;2023-02-01T13:22:39;100085.14;;;4.34;80.74
77572;BME280;67214;47.454;18.966;2023-02-01T13:25:21;100089.79;;;4.29;80.01
77572;BME280;67214;47.454;18.966;2023-02-01T13:27:43;100087.73;;;4.27;80.58
77572;BME280;67214;47.454;18.966;2023-02-01T13:30:20;100079.86;;;4.27;80.77
77572;BME280;67214;47.454;18.966;2023-02-01T13:33:08;100080.78;;;4.26;80.38
77572;BME280;67214;47.454;18.966;2023-02-01T13:35:46;100074.30;;;4.24;80.45
77572;BME280;67214;47.454;18.966;2023-02-01T13:44:10;100071.13;;;4.26;80.23
77572;BME280;67214;47.454;18.966;2023-02-01T13:46:40;100077.41;;;4.24;80.72
77572;BME280;67214;47.454;18.966;2023-02-01T13:49:43;100083.80;;;4.27;80.30
77572;BME280;67214;47.454;18.966;2023-02-01T13:51:48;100088.66;;;4.26;80.45
77572;BME280;67214;47.454;18.966;2023-02-01T13:54:38;100092.20;;;4.25;80.63
77572;BME280;67214;47.454;18.966;2023-02-01T13:57:28;100083.02;;;4.25;80.38
77572;BME280;67214;47.454;18.966;2023-02-01T14:02:36;100093.38;;;4.28;80.82
77572;BME280;67214;47.454;18.966;2023-02-01T14:05:08;100094.40;;;4.32;80.63
77572;BME280;67214;47.454;18.966;2023-02-01T14:07:36;100094.97;;;4.30;79.53
77572;BME280;67214;47.454;18.966;2023-02-01T14:26:23;100073.24;;;4.58;78.91
77572;BME280;67214;47.454;18.966;2023-02-01T14:29:41;100089.18;;;4.55;78.93
77572;BME280;67214;47.454;18.966;2023-02-01T14:31:33;100089.02;;;4.65;79.00
77572;BME280;67214;47.454;18.966;2023-02-01T14:34:10;100096.90;;;4.65;78.90
77572;BME280;67214;47.454;18.966;2023-02-01T14:36:56;100093.45;;;4.64;78.54
77572;BME280;67214;47.454;18.966;2023-02-01T14:39:30;100089.62;;;4.77;77.94
77572;BME280;67214;47.454;18.966;2023-02-01T14:42:00;100091.94;;;4.97;77.02
77572;BME280;67214;47.454;18.966;2023-02-01T14:44:27;100086.98;;;4.93;77.47
77572;BME280;67214;47.454;18.966;2023-02-01T14:47:25;100077.33;;;5.00;75.83
77572;BME280;67214;47.454;18.966;2023-02-01T14:55:24;100088.36;;;5.28;73.43
77572;BME280;67214;47.454;18.966;2023-02-01T14:57:48;100085.65;;;5.30;73.03